sensor_id;sensor_type;location;lat;lon;timestamp;temperature;humidity
10964;DHT22;5534;48.784;9.190;2023-02-01T00:02:17;6.30;99.90
10964;DHT22;5534;48.784;9.190;2023-02-01T00:04:43;6.50;99.90
10964;DHT22;5534;48.784;9.190;2023-02-01T00:07:09;6.60;99.90
10964;DHT22;5534;48.784;9.190;2023-02-01T00:09:34;6.40;99.90
10964;DHT22;5534;48.784;9.190;2023-02-01T00:12:00;6.30;99.90
10964;DHT22;5534;48.784;9.190;2023-02-01T00:14:28;6.20;99.90
10964;DHT22;5534;48.784;9.190;2023-02-01T00:16:54;6.50;99.90
10964;DHT22;5534;48.784;9.190;2023-02-01T00:19:20;6.60;99.90
10964;DHT22;5534;48.784;9.190;2023-02-01T00:21:47;6.50;99.90
10964;DHT22;5534;48.784;9.190;2023-02-01T00:24:13;6.50;99.90
10964;DHT22;5534;48.784;9.190;2023-02-01T00:26:41;6.30;99.90
10964;DHT22;5534;48.784;9.190;2023-02-01T00:29:12;6.20;99.90
10964;DHT22;5534;48.784;9.190;2023-02-01T00:31:38;6.10;99.90
10964;DHT22;5534;48.784;9.190;2023-02-01T00:34:04;6.20;99.90
10964;DHT22;5534;48.784;9.190;2023-02-01T00:36:30;6.50;99.90
10964;DHT22;5534;48.784;9.190;2023-02-01T00:38:56;6.40;99.90
10964;DHT22;5534;48.784;9.190;2023-02-01T00:41:22;6.50;99.90
10964;DHT22;5534;48.784;9.190;2023-02-01T00:43:49;6.50;99.90
10964;DHT22;5534;48.784;9.190;2023-02-01T00:46:17;6.30;99.90
10964;DHT22;5534;48.784;9.190;2023-02-01T00:48:43;6.40;99.90
10964;DHT22;5534;48.784;9.190;2023-02-01T00:51:12;6.40;99.90
10964;DHT22;5534;48.784;9.190;2023-02-01T00:53:38;6.40;99.90
10964;DHT22;5534;48.784;9.190;2023-02-01T00:56:04;6.30;99.90
10964;DHT22;5534;48.784;9.190;2023-02-01T00:58:31;6.20;99.90
10964;DHT22;5534;48.784;9.190;2023-02-01T01:01:10;6.20;99.90
10964;DHT22;5534;48.784;9.190;2023-02-01T01:03:40;6.40;99.90
10964;DHT22;5534;48.784;9.190;2023-02-01T01:06:09;6.40;99.90
10964;DHT22;5534;48.784;9.190;2023-02-01T01:08:35;6.40;99.90
10964;DHT22;5534;48.784;9.190;2023-02-01T01:11:14;6.50;99.90
10964;DHT22;5534;48.784;9.190;2023-02-01T01:13:40;6.50;99.90
10964;DHT22;5534;48.784;9.190;2023-02-01T01:16:08;6.50;99.90
10964;DHT22;5534;48.784;9.190;2023-02-01T01:18:34;6.40;99.90
10964;DHT22;5534;48.784;9.190;2023-02-01T01:21:00;6.30;99.90
10964;DHT22;5534;48.784;9.190;2023-02-01T01:23:27;6.50;99.90
10964;DHT22;5534;48.784;9.190;2023-02-01T01:25:54;6.40;99.90
10964;DHT22;5534;48.784;9.190;2023-02-01T01:28:21;6.60;99.90
10964;DHT22;5534;48.784;9.190;2023-02-01T01:30:46;6.60;99.90
10964;DHT22;5534;48.784;9.190;2023-02-01T01:33:12;6.60;99.90
10964;DHT22;5534;48.784;9.190;2023-02-01T01:35:38;6.70;99.90
10964;DHT22;5534;48.784;9.190;2023-02-01T01:38:04;6.50;99.90
10964;DHT22;5534;48.784;9.190;2023-02-01T01:40:30;6.60;99.90
10964;DHT22;5534;48.784;9.190;2023-02-01T01:42:56;6.90;99.90
10964;DHT22;5534;48.784;9.190;2023-02-01T01:45:26;6.70;99.90
10964;DHT22;5534;48.784;9.190;2023-02-01T01:47:58;6.60;99.90
10964;DHT22;5534;48.784;9.190;2023-02-01T01:50:33;6.70;99.90
10964;DHT22;5534;48.784;9.190;2023-02-01T01:53:03;6.80;99.90
10964;DHT22;5534;48.784;9.190;2023-02-01T01:55:33;6.50;99.90
10964;DHT22;5534;48.784;9.190;2023-02-01T01:58:08;6.50;99.90
10964;DHT22;5534;48.784;9.190;2023-02-01T02:00:36;6.70;99.90
10964;DHT22;5534;48.784;9.190;2023-02-01T02:05:57;7.00;99.90
10964;DHT22;5534;48.784;9.190;2023-02-01T02:08:25;6.90;99.90
10964;DHT22;5534;48.784;9.190;2023-02-01T02:10:51;6.80;99.90
10964;DHT22;5534;48.784;9.190;2023-02-01T02:13:33;6.90;99.90
10964;DHT22;5534;48.784;9.190;2023-02-01T02:21:42;6.80;99.90
10964;DHT22;5534;48.784;9.190;2023-02-01T02:24:09;6.90;99.90
10964;DHT22;5534;48.784;9.190;2023-02-01T02:26:54;6.90;99.90
10964;DHT22;5534;48.784;9.190;2023-02-01T02:29:50;6.90;99.90
10964;DHT22;5534;48.784;9.190;2023-02-01T02:38:05;7.10;99.90
10964;DHT22;5534;48.784;9.190;2023-02-01T02:43:28;6.90;99.90
10964;DHT22;5534;48.784;9.190;2023-02-01T02:46:32;7.10;99.90
10964;DHT22;5534;48.784;9.190;2023-02-01T02:49:49;6.90;99.90
10964;DHT22;5534;48.784;9.190;2023-02-01T02:52:30;6.90;99.90
10964;DHT22;5534;48.784;9.190;2023-02-01T02:55:15;7.00;99.90
10964;DHT22;5534;48.784;9.190;2023-02-01T02:57:43;6.70;99.90
10964;DHT22;5534;48.784;9.190;2023-02-01T03:00:31;6.80;99.90
10964;DHT22;5534;48.784;9.190;2023-02-01T03:03:17;6.90;99.90
10964;DHT22;5534;48.784;9.190;2023-02-01T03:06:02;7.00;99.90
10964;DHT22;5534;48.784;9.190;2023-02-01T03:08:29;6.90;99.90
10964;DHT22;5534;48.784;9.190;2023-02-01T03:11:00;7.00;99.90
10964;DHT22;5534;48.784;9.190;2023-02-01T03:13:53;6.90;99.90
10964;DHT22;5534;48.784;9.190;2023-02-01T03:16:22;6.90;99.90
10964;DHT22;5534;48.784;9.190;2023-02-01T03:19:02;6.90;99.90
10964;DHT22;5534;48.784;9.190;2023-02-01T03:21:40;7.00;99.90
10964;DHT22;5534;48.784;9.190;2023-02-01T03:26:45;6.90;99.90
10964;DHT22;5534;48.784;9.190;2023-02-01T03:29:18;6.90;99.90
10964;DHT22;5534;48.784;9.190;2023-02-01T03:31:47;6.80;99.90
10964;DHT22;5534;48.784;9.190;2023-02-01T03:34:13;6.70;99.90
10964;DHT22;5534;48.784;9.190;2023-02-01T03:39:17;6.40;99.90
10964;DHT22;5534;48.784;9.190;2023-02-01T03:41:51;6.30;99.90
10964;DHT22;5534;48.784;9.190;2023-02-01T03:44:47;6.40;99.90
10964;DHT22;5534;48.784;9.190;2023-02-01T03:47:22;6.40;99.90
10964;DHT22;5534;48.784;9.190;2023-02-01T03:49:54;6.70;99.90
10964;DHT22;5534;48.784;9.190;2023-02-01T03:52:34;6.80;99.90
10964;DHT22;5534;48.784;9.190;2023-02-01T03:55:03;6.90;99.90
10964;DHT22;5534;48.784;9.190;2023-02-01T03:57:33;6.90;99.90
10964;DHT22;5534;48.784;9.190;2023-02-01T04:00:10;6.80;99.90
10964;DHT22;5534;48.784;9.190;2023-02-01T04:02:39;6.80;99.90
10964;DHT22;5534;48.784;9.190;2023-02-01T04:05:05;6.90;99.90
10964;DHT22;5534;48.784;9.190;2023-02-01T04:07:31;6.80;99.90
10964;DHT22;5534;48.784;9.190;2023-02-01T04:09:57;6.70;99.90
10964;DHT22;5534;48.784;9.190;2023-02-01T04:12:23;6.70;99.90
10964;DHT22;5534;48.784;9.190;2023-02-01T04:14:49;6.90;99.90
10964;DHT22;5534;48.784;9.190;2023-02-01T04:17:14;6.90;99.90
10964;DHT22;5534;48.784;9.190;2023-02-01T04:19:40;7.00;99.90
10964;DHT22;5534;48.784;9.190;2023-02-01T04:22:06;7.10;99.90
10964;DHT22;5534;48.784;9.190;2023-02-01T04:24:31;6.90;99.90
10964;DHT22;5534;48.784;9.190;2023-02-01T04:26:57;6.80;99.90
10964;DHT22;5534;48.784;9.190;2023-02-01T04:29:23;6.80;99.90
10964;DHT22;5534;48.784;9.190;2023-02-01T04:31:48;6.90;99.90
10964;DHT22;5534;48.784;9.190;2023-02-01T04:34:15;6.80;99.90
10964;DHT22;5534;48.784;9.190;2023-02-01T04:36:41;6.80;99.90
10964;DHT22;5534;48.784;9.190;2023-02-01T04:39:09;6.80;99.90
10964;DHT22;5534;48.784;9.190;2023-02-01T04:41:34;6.80;99.90
10964;DHT22;5534;48.784;9.190;2023-02-01T04:44:00;6.80;99.90
10964;DHT22;5534;48.784;9.190;2023-02-01T04:46:26;7.00;99.90
10964;DHT22;5534;48.784;9.190;2023-02-01T04:48:52;6.90;99.90
10964;DHT22;5534;48.784;9.190;2023-02-01T04:51:17;7.10;99.90
10964;DHT22;5534;48.784;9.190;2023-02-01T04:53:44;6.90;99.90
10964;DHT22;5534;48.784;9.190;2023-02-01T04:56:10;6.80;99.90
10964;DHT22;5534;48.784;9.190;2023-02-01T04:58:35;6.70;99.90
10964;DHT22;5534;48.784;9.190;2023-02-01T05:01:05;6.70;99.90
10964;DHT22;5534;48.784;9.190;2023-02-01T05:03:34;6.60;99.90
10964;DHT22;5534;48.784;9.190;2023-02-01T05:06:00;6.80;99.90
10964;DHT22;5534;48.784;9.190;2023-02-01T05:08:27;7.00;99.90
10964;DHT22;5534;48.784;9.190;2023-02-01T05:10:54;7.00;99.90
10964;DHT22;5534;48.784;9.190;2023-02-01T05:13:20;7.10;99.90
10964;DHT22;5534;48.784;9.190;2023-02-01T05:16:04;7.20;99.90
10964;DHT22;5534;48.784;9.190;2023-02-01T05:18:30;7.30;99.90
10964;DHT22;5534;48.784;9.190;2023-02-01T05:20:56;7.30;99.90
10964;DHT22;5534;48.784;9.190;2023-02-01T05:23:22;7.30;99.90
10964;DHT22;5534;48.784;9.190;2023-02-01T05:25:49;7.20;99.90
10964;DHT22;5534;48.784;9.190;2023-02-01T05:28:15;7.20;99.90
10964;DHT22;5534;48.784;9.190;2023-02-01T05:30:40;7.20;99.90
10964;DHT22;5534;48.784;9.190;2023-02-01T05:33:06;7.20;99.90
10964;DHT22;5534;48.784;9.190;2023-02-01T05:35:32;7.20;99.90
10964;DHT22;5534;48.784;9.190;2023-02-01T05:37:57;7.10;99.90
10964;DHT22;5534;48.784;9.190;2023-02-01T05:40:23;7.20;99.90
10964;DHT22;5534;48.784;9.190;2023-02-01T05:42:49;7.20;99.90
10964;DHT22;5534;48.784;9.190;2023-02-01T05:45:15;7.30;99.90
10964;DHT22;5534;48.784;9.190;2023-02-01T05:47:40;7.30;99.90
10964;DHT22;5534;48.784;9.190;2023-02-01T05:50:07;7.10;99.90
10964;DHT22;5534;48.784;9.190;2023-02-01T05:52:33;7.10;99.90
10964;DHT22;5534;48.784;9.190;2023-02-01T05:54:59;7.20;99.90
10964;DHT22;5534;48.784;9.190;2023-02-01T05:57:25;7.20;99.90
10964;DHT22;5534;48.784;9.190;2023-02-01T05:59:51;7.20;99.90
10964;DHT22;5534;48.784;9.190;2023-02-01T06:02:16;7.10;99.90
10964;DHT22;5534;48.784;9.190;2023-02-01T06:04:42;7.10;99.90
10964;DHT22;5534;48.784;9.190;2023-02-01T06:07:09;6.60;99.90
10964;DHT22;5534;48.784;9.190;2023-02-01T06:09:36;6.40;99.90
10964;DHT22;5534;48.784;9.190;2023-02-01T06:12:03;6.60;99.90
10964;DHT22;5534;48.784;9.190;2023-02-01T06:14:29;6.70;99.90
10964;DHT22;5534;48.784;9.190;2023-02-01T06:16:55;6.60;99.90
10964;DHT22;5534;48.784;9.190;2023-02-01T06:19:21;6.70;99.90
10964;DHT22;5534;48.784;9.190;2023-02-01T06:21:47;6.60;99.90
10964;DHT22;5534;48.784;9.190;2023-02-01T06:24:13;6.70;99.90
10964;DHT22;5534;48.784;9.190;2023-02-01T06:26:39;6.70;99.90
10964;DHT22;5534;48.784;9.190;2023-02-01T06:29:06;7.00;99.90
10964;DHT22;5534;48.784;9.190;2023-02-01T06:31:32;6.80;99.90
10964;DHT22;5534;48.784;9.190;2023-02-01T06:33:58;7.00;99.90
10964;DHT22;5534;48.784;9.190;2023-02-01T06:36:24;7.10;99.90
10964;DHT22;5534;48.784;9.190;2023-02-01T06:38:51;7.00;99.90
10964;DHT22;5534;48.784;9.190;2023-02-01T06:41:17;7.10;99.90
10964;DHT22;5534;48.784;9.190;2023-02-01T06:43:45;7.10;99.90
10964;DHT22;5534;48.784;9.190;2023-02-01T06:46:12;7.10;99.90
10964;DHT22;5534;48.784;9.190;2023-02-01T06:48:38;7.20;99.90
10964;DHT22;5534;48.784;9.190;2023-02-01T06:51:04;7.20;99.90
10964;DHT22;5534;48.784;9.190;2023-02-01T06:53:30;7.30;99.90
10964;DHT22;5534;48.784;9.190;2023-02-01T06:55:58;7.20;99.90
10964;DHT22;5534;48.784;9.190;2023-02-01T06:58:28;7.10;99.90
10964;DHT22;5534;48.784;9.190;2023-02-01T07:00:55;7.10;99.90
10964;DHT22;5534;48.784;9.190;2023-02-01T07:03:21;7.00;99.90
10964;DHT22;5534;48.784;9.190;2023-02-01T07:05:47;7.00;99.90
10964;DHT22;5534;48.784;9.190;2023-02-01T07:08:13;7.10;99.90
10964;DHT22;5534;48.784;9.190;2023-02-01T07:10:38;7.20;99.90
10964;DHT22;5534;48.784;9.190;2023-02-01T07:13:04;7.30;99.90
10964;DHT22;5534;48.784;9.190;2023-02-01T07:15:30;7.20;99.90
10964;DHT22;5534;48.784;9.190;2023-02-01T07:17:56;7.20;99.90
10964;DHT22;5534;48.784;9.190;2023-02-01T07:20:23;7.10;99.90
10964;DHT22;5534;48.784;9.190;2023-02-01T07:22:53;7.10;99.90
10964;DHT22;5534;48.784;9.190;2023-02-01T07:25:19;7.20;99.90
10964;DHT22;5534;48.784;9.190;2023-02-01T07:27:46;7.10;99.90
10964;DHT22;5534;48.784;9.190;2023-02-01T07:30:13;7.10;99.90
10964;DHT22;5534;48.784;9.190;2023-02-01T07:32:39;7.20;99.90
10964;DHT22;5534;48.784;9.190;2023-02-01T07:35:05;7.10;99.90
10964;DHT22;5534;48.784;9.190;2023-02-01T07:37:31;7.10;99.90
10964;DHT22;5534;48.784;9.190;2023-02-01T07:39:57;7.20;99.90
10964;DHT22;5534;48.784;9.190;2023-02-01T07:42:22;7.10;99.90
10964;DHT22;5534;48.784;9.190;2023-02-01T07:44:48;7.00;99.90
10964;DHT22;5534;48.784;9.190;2023-02-01T07:47:14;7.10;99.90
10964;DHT22;5534;48.784;9.190;2023-02-01T07:49:39;7.40;99.90
10964;DHT22;5534;48.784;9.190;2023-02-01T07:52:05;7.50;99.90
10964;DHT22;5534;48.784;9.190;2023-02-01T07:54:31;7.40;99.90
10964;DHT22;5534;48.784;9.190;2023-02-01T07:56:57;7.50;99.90
10964;DHT22;5534;48.784;9.190;2023-02-01T07:59:22;7.50;99.90
10964;DHT22;5534;48.784;9.190;2023-02-01T08:01:48;7.40;99.90
10964;DHT22;5534;48.784;9.190;2023-02-01T08:04:14;7.40;99.90
10964;DHT22;5534;48.784;9.190;2023-02-01T08:06:40;7.30;99.90
10964;DHT22;5534;48.784;9.190;2023-02-01T08:09:06;7.40;99.90
10964;DHT22;5534;48.784;9.190;2023-02-01T08:11:34;7.40;99.90
10964;DHT22;5534;48.784;9.190;2023-02-01T08:14:02;7.40;99.90
10964;DHT22;5534;48.784;9.190;2023-02-01T08:16:27;7.50;99.90
10964;DHT22;5534;48.784;9.190;2023-02-01T08:18:53;7.40;99.90
10964;DHT22;5534;48.784;9.190;2023-02-01T08:21:22;7.20;99.90
10964;DHT22;5534;48.784;9.190;2023-02-01T08:23:48;7.10;99.90
10964;DHT22;5534;48.784;9.190;2023-02-01T08:26:22;7.30;99.90
10964;DHT22;5534;48.784;9.190;2023-02-01T08:28:57;7.30;99.90
10964;DHT22;5534;48.784;9.190;2023-02-01T08:31:24;7.50;99.90
10964;DHT22;5534;48.784;9.190;2023-02-01T08:33:52;7.50;99.90
10964;DHT22;5534;48.784;9.190;2023-02-01T08:36:19;7.40;99.90
10964;DHT22;5534;48.784;9.190;2023-02-01T08:38:45;7.50;99.90
10964;DHT22;5534;48.784;9.190;2023-02-01T08:41:13;7.50;99.90
10964;DHT22;5534;48.784;9.190;2023-02-01T08:43:40;7.50;99.90
10964;DHT22;5534;48.784;9.190;2023-02-01T08:46:07;7.60;99.90
10964;DHT22;5534;48.784;9.190;2023-02-01T08:48:34;7.50;99.90
10964;DHT22;5534;48.784;9.190;2023-02-01T08:51:05;7.40;99.90
10964;DHT22;5534;48.784;9.190;2023-02-01T08:53:31;7.70;99.90
10964;DHT22;5534;48.784;9.190;2023-02-01T08:55:59;7.60;99.90
10964;DHT22;5534;48.784;9.190;2023-02-01T08:58:28;7.60;99.90
10964;DHT22;5534;48.784;9.190;2023-02-01T09:00:55;7.60;99.90
10964;DHT22;5534;48.784;9.190;2023-02-01T09:03:21;7.70;99.90
10964;DHT22;5534;48.784;9.190;2023-02-01T09:05:47;7.60;99.90
10964;DHT22;5534;48.784;9.190;2023-02-01T09:08:13;7.60;99.90
10964;DHT22;5534;48.784;9.190;2023-02-01T09:10:41;7.60;99.90
10964;DHT22;5534;48.784;9.190;2023-02-01T09:13:08;7.70;99.90
10964;DHT22;5534;48.784;9.190;2023-02-01T09:15:34;7.80;99.90
10964;DHT22;5534;48.784;9.190;2023-02-01T09:18:00;7.90;99.90
10964;DHT22;5534;48.784;9.190;2023-02-01T09:20:25;7.90;99.90
10964;DHT22;5534;48.784;9.190;2023-02-01T09:22:52;7.90;99.90
10964;DHT22;5534;48.784;9.190;2023-02-01T09:25:18;8.00;99.90
10964;DHT22;5534;48.784;9.190;2023-02-01T09:27:44;8.10;99.90
10964;DHT22;5534;48.784;9.190;2023-02-01T09:30:10;7.80;99.90
10964;DHT22;5534;48.784;9.190;2023-02-01T09:32:36;7.60;99.90
10964;DHT22;5534;48.784;9.190;2023-02-01T09:35:02;7.70;99.90
10964;DHT22;5534;48.784;9.190;2023-02-01T09:37:28;7.90;99.90
10964;DHT22;5534;48.784;9.190;2023-02-01T09:39:54;8.10;99.90
10964;DHT22;5534;48.784;9.190;2023-02-01T09:42:45;7.90;99.90
10964;DHT22;5534;48.784;9.190;2023-02-01T09:48:20;7.90;99.90
10964;DHT22;5534;48.784;9.190;2023-02-01T09:50:56;8.10;99.90
10964;DHT22;5534;48.784;9.190;2023-02-01T09:53:32;8.10;99.90
10964;DHT22;5534;48.784;9.190;2023-02-01T09:56:21;8.00;99.90
10964;DHT22;5534;48.784;9.190;2023-02-01T09:59:01;8.10;99.90
10964;DHT22;5534;48.784;9.190;2023-02-01T10:01:28;8.20;99.90
10964;DHT22;5534;48.784;9.190;2023-02-01T10:04:03;8.30;99.90
10964;DHT22;5534;48.784;9.190;2023-02-01T10:06:49;8.10;99.90
10964;DHT22;5534;48.784;9.190;2023-02-01T10:09:35;8.20;99.90
10964;DHT22;5534;48.784;9.190;2023-02-01T10:20:57;8.20;99.90
10964;DHT22;5534;48.784;9.190;2023-02-01T10:26:21;8.30;99.90
10964;DHT22;5534;48.784;9.190;2023-02-01T10:28:55;8.10;99.90
10964;DHT22;5534;48.784;9.190;2023-02-01T10:31:29;8.30;99.90
10964;DHT22;5534;48.784;9.190;2023-02-01T10:33:58;8.30;99.90
10964;DHT22;5534;48.784;9.190;2023-02-01T10:36:49;8.20;99.90
10964;DHT22;5534;48.784;9.190;2023-02-01T10:39:16;8.30;99.90
10964;DHT22;5534;48.784;9.190;2023-02-01T10:41:41;8.40;99.90
10964;DHT22;5534;48.784;9.190;2023-02-01T10:44:14;8.50;99.90
10964;DHT22;5534;48.784;9.190;2023-02-01T10:46:41;8.40;99.90
10964;DHT22;5534;48.784;9.190;2023-02-01T10:49:26;8.60;99.90
10964;DHT22;5534;48.784;9.190;2023-02-01T10:52:03;8.60;99.90
10964;DHT22;5534;48.784;9.190;2023-02-01T10:54:36;8.50;99.90
10964;DHT22;5534;48.784;9.190;2023-02-01T10:57:08;8.70;99.90
10964;DHT22;5534;48.784;9.190;2023-02-01T10:59:34;8.70;99.90
10964;DHT22;5534;48.784;9.190;2023-02-01T11:02:34;8.50;99.90
10964;DHT22;5534;48.784;9.190;2023-02-01T11:05:10;8.60;99.90
10964;DHT22;5534;48.784;9.190;2023-02-01T11:07:39;8.50;99.90
10964;DHT22;5534;48.784;9.190;2023-02-01T11:10:38;8.40;99.90
10964;DHT22;5534;48.784;9.190;2023-02-01T11:13:04;8.40;99.90
10964;DHT22;5534;48.784;9.190;2023-02-01T11:15:30;8.30;99.90
10964;DHT22;5534;48.784;9.190;2023-02-01T11:17:55;8.40;99.90
10964;DHT22;5534;48.784;9.190;2023-02-01T11:20:39;8.50;99.90
10964;DHT22;5534;48.784;9.190;2023-02-01T11:23:14;8.60;99.90
10964;DHT22;5534;48.784;9.190;2023-02-01T11:25:48;8.60;99.90
10964;DHT22;5534;48.784;9.190;2023-02-01T11:28:15;8.60;99.90
10964;DHT22;5534;48.784;9.190;2023-02-01T11:30:44;8.40;99.90
10964;DHT22;5534;48.784;9.190;2023-02-01T11:33:17;8.40;99.90
10964;DHT22;5534;48.784;9.190;2023-02-01T11:35:44;8.40;99.90
10964;DHT22;5534;48.784;9.190;2023-02-01T11:38:26;8.60;99.90
10964;DHT22;5534;48.784;9.190;2023-02-01T11:40:53;8.50;99.90
10964;DHT22;5534;48.784;9.190;2023-02-01T11:43:55;8.40;99.90
10964;DHT22;5534;48.784;9.190;2023-02-01T11:46:30;8.20;99.90
10964;DHT22;5534;48.784;9.190;2023-02-01T11:48:57;8.20;99.90
10964;DHT22;5534;48.784;9.190;2023-02-01T11:54:35;8.40;99.90
10964;DHT22;5534;48.784;9.190;2023-02-01T12:05:47;8.30;99.90
10964;DHT22;5534;48.784;9.190;2023-02-01T12:08:50;8.40;99.90
10964;DHT22;5534;48.784;9.190;2023-02-01T12:11:34;8.50;99.90
10964;DHT22;5534;48.784;9.190;2023-02-01T12:28:16;8.30;99.90
10964;DHT22;5534;48.784;9.190;2023-02-01T12:36:36;8.60;99.90
10964;DHT22;5534;48.784;9.190;2023-02-01T12:39:13;8.40;99.90
10964;DHT22;5534;48.784;9.190;2023-02-01T12:44:50;8.30;99.90
10964;DHT22;5534;48.784;9.190;2023-02-01T12:47:33;8.40;99.90
10964;DHT22;5534;48.784;9.190;2023-02-01T12:50:20;8.50;99.90
10964;DHT22;5534;48.784;9.190;2023-02-01T12:52:49;8.80;99.90
10964;DHT22;5534;48.784;9.190;2023-02-01T12:55:17;8.80;99.90
10964;DHT22;5534;48.784;9.190;2023-02-01T12:58:11;9.00;99.90
10964;DHT22;5534;48.784;9.190;2023-02-01T13:00:43;9.10;99.90
10964;DHT22;5534;48.784;9.190;2023-02-01T13:06:04;8.60;99.90
10964;DHT22;5534;48.784;9.190;2023-02-01T13:08:47;8.40;99.90
10964;DHT22;5534;48.784;9.190;2023-02-01T13:11:20;8.40;99.90
10964;DHT22;5534;48.784;9.190;2023-02-01T13:16:33;8.00;99.90
10964;DHT22;5534;48.784;9.190;2023-02-01T13:19:14;8.00;99.90
10964;DHT22;5534;48.784;9.190;2023-02-01T13:24:54;8.20;99.90
10964;DHT22;5534;48.784;9.190;2023-02-01T13:27:21;8.10;99.90
10964;DHT22;5534;48.784;9.190;2023-02-01T13:29:58;8.10;99.90
10964;DHT22;5534;48.784;9.190;2023-02-01T13:32:59;8.10;99.90
10964;DHT22;5534;48.784;9.190;2023-02-01T13:43:39;8.20;99.90
10964;DHT22;5534;48.784;9.190;2023-02-01T13:46:10;8.00;99.90
10964;DHT22;5534;48.784;9.190;2023-02-01T13:49:01;8.30;99.90
10964;DHT22;5534;48.784;9.190;2023-02-01T13:51:42;8.50;99.90
10964;DHT22;5534;48.784;9.190;2023-02-01T13:54:26;8.40;99.90
10964;DHT22;5534;48.784;9.190;2023-02-01T13:56:52;8.40;99.90
10964;DHT22;5534;48.784;9.190;2023-02-01T14:05:04;8.10;99.90
10964;DHT22;5534;48.784;9.190;2023-02-01T14:07:33;8.20;99.90
10964;DHT22;5534;48.784;9.190;2023-02-01T14:16:14;8.10;99.90
10964;DHT22;5534;48.784;9.190;2023-02-01T14:18:54;8.00;99.90
10964;DHT22;5534;48.784;9.190;2023-02-01T14:26:25;8.10;99.90
10964;DHT22;5534;48.784;9.190;2023-02-01T14:40:05;8.30;99.90
10964;DHT22;5534;48.784;9.190;2023-02-01T14:50:47;8.20;99.90
10964;DHT22;5534;48.784;9.190;2023-02-01T14:53:21;8.20;99.90
10964;DHT22;5534;48.784;9.190;2023-02-01T14:56:06;8.50;99.90
10964;DHT22;5534;48.784;9.190;2023-02-01T15:01:29;8.20;99.90
10964;DHT22;5534;48.784;9.190;2023-02-01T15:14:45;8.00;99.90
10964;DHT22;5534;48.784;9.190;2023-02-01T15:17:25;8.00;99.90
10964;DHT22;5534;48.784;9.190;2023-02-01T15:19:56;8.20;99.90
10964;DHT22;5534;48.784;9.190;2023-02-01T15:22:22;8.20;99.90
10964;DHT22;5534;48.784;9.190;2023-02-01T15:24:53;7.90;99.90
10964;DHT22;5534;48.784;9.190;2023-02-01T15:27:25;8.10;99.90
10964;DHT22;5534;48.784;9.190;2023-02-01T15:29:52;7.90;99.90
10964;DHT22;5534;48.784;9.190;2023-02-01T15:32:33;8.10;99.90
10964;DHT22;5534;48.784;9.190;2023-02-01T15:35:00;7.90;99.90
10964;DHT22;5534;48.784;9.190;2023-02-01T15:37:27;7.80;99.90
10964;DHT22;5534;48.784;9.190;2023-02-01T15:40:24;7.70;99.90
10964;DHT22;5534;48.784;9.190;2023-02-01T15:42:55;7.90;99.90
10964;DHT22;5534;48.784;9.190;2023-02-01T15:45:26;8.00;99.90
10964;DHT22;5534;48.784;9.190;2023-02-01T15:47:55;7.90;99.90
10964;DHT22;5534;48.784;9.190;2023-02-01T15:50:21;7.80;99.90
10964;DHT22;5534;48.784;9.190;2023-02-01T15:52:51;8.00;99.90
10964;DHT22;5534;48.784;9.190;2023-02-01T15:55:19;7.90;99.90
10964;DHT22;5534;48.784;9.190;2023-02-01T15:57:45;7.90;99.90
10964;DHT22;5534;48.784;9.190;2023-02-01T16:00:29;7.90;99.90
10964;DHT22;5534;48.784;9.190;2023-02-01T16:03:15;8.00;99.90
10964;DHT22;5534;48.784;9.190;2023-02-01T16:05:57;8.10;99.90
10964;DHT22;5534;48.784;9.190;2023-02-01T16:08:26;8.10;99.90
10964;DHT22;5534;48.784;9.190;2023-02-01T16:10:54;8.10;99.90
10964;DHT22;5534;48.784;9.190;2023-02-01T16:13:24;8.10;99.90
10964;DHT22;5534;48.784;9.190;2023-02-01T16:15:50;8.10;99.90
10964;DHT22;5534;48.784;9.190;2023-02-01T16:18:16;7.90;99.90
10964;DHT22;5534;48.784;9.190;2023-02-01T16:20:43;8.30;99.90
10964;DHT22;5534;48.784;9.190;2023-02-01T16:23:09;8.30;99.90
10964;DHT22;5534;48.784;9.190;2023-02-01T16:25:36;7.90;99.90
10964;DHT22;5534;48.784;9.190;2023-02-01T16:28:03;8.10;99.90
10964;DHT22;5534;48.784;9.190;2023-02-01T16:30:30;8.10;99.90
10964;DHT22;5534;48.784;9.190;2023-02-01T16:32:59;8.00;99.90
10964;DHT22;5534;48.784;9.190;2023-02-01T16:35:27;7.90;99.90
10964;DHT22;5534;48.784;9.190;2023-02-01T16:37:55;8.10;99.90
10964;DHT22;5534;48.784;9.190;2023-02-01T16:40:23;8.00;99.90
10964;DHT22;5534;48.784;9.190;2023-02-01T16:42:51;8.00;99.90
10964;DHT22;5534;48.784;9.190;2023-02-01T16:45:17;8.00;99.90
10964;DHT22;5534;48.784;9.190;2023-02-01T16:47:49;7.90;99.90
10964;DHT22;5534;48.784;9.190;2023-02-01T16:50:20;7.80;99.90
10964;DHT22;5534;48.784;9.190;2023-02-01T16:52:47;8.00;99.90
10964;DHT22;5534;48.784;9.190;2023-02-01T16:55:15;8.00;99.90
10964;DHT22;5534;48.784;9.190;2023-02-01T16:57:42;7.90;99.90
10964;DHT22;5534;48.784;9.190;2023-02-01T17:00:14;7.70;99.90
10964;DHT22;5534;48.784;9.190;2023-02-01T17:02:46;7.70;99.90
10964;DHT22;5534;48.784;9.190;2023-02-01T17:05:12;7.80;99.90
10964;DHT22;5534;48.784;9.190;2023-02-01T17:07:38;7.90;99.90
10964;DHT22;5534;48.784;9.190;2023-02-01T17:10:10;8.00;99.90
10964;DHT22;5534;48.784;9.190;2023-02-01T17:12:42;8.10;99.90
10964;DHT22;5534;48.784;9.190;2023-02-01T17:15:10;8.00;99.90
10964;DHT22;5534;48.784;9.190;2023-02-01T17:17:38;7.90;99.90
10964;DHT22;5534;48.784;9.190;2023-02-01T17:20:05;8.00;99.90
10964;DHT22;5534;48.784;9.190;2023-02-01T17:22:33;7.80;99.90
10964;DHT22;5534;48.784;9.190;2023-02-01T17:24:59;8.00;99.90
10964;DHT22;5534;48.784;9.190;2023-02-01T17:27:25;7.90;99.90
10964;DHT22;5534;48.784;9.190;2023-02-01T17:29:51;7.80;99.90
10964;DHT22;5534;48.784;9.190;2023-02-01T17:32:23;7.90;99.90
10964;DHT22;5534;48.784;9.190;2023-02-01T17:34:50;7.80;99.90
10964;DHT22;5534;48.784;9.190;2023-02-01T17:39:52;7.90;99.90
10964;DHT22;5534;48.784;9.190;2023-02-01T17:42:24;7.90;99.90
10964;DHT22;5534;48.784;9.190;2023-02-01T17:45:01;8.00;99.90
10964;DHT22;5534;48.784;9.190;2023-02-01T17:47:36;7.80;99.90
10964;DHT22;5534;48.784;9.190;2023-02-01T17:50:03;7.90;99.90
10964;DHT22;5534;48.784;9.190;2023-02-01T17:52:29;7.90;99.90
10964;DHT22;5534;48.784;9.190;2023-02-01T17:54:57;8.10;99.90
10964;DHT22;5534;48.784;9.190;2023-02-01T17:57:23;8.00;99.90
10964;DHT22;5534;48.784;9.190;2023-02-01T17:59:49;8.00;99.90
10964;DHT22;5534;48.784;9.190;2023-02-01T18:02:21;8.10;99.90
10964;DHT22;5534;48.784;9.190;2023-02-01T18:04:47;8.00;99.90
10964;DHT22;5534;48.784;9.190;2023-02-01T18:07:14;8.10;99.90
10964;DHT22;5534;48.784;9.190;2023-02-01T18:09:41;7.90;99.90
10964;DHT22;5534;48.784;9.190;2023-02-01T18:12:21;7.70;99.90
10964;DHT22;5534;48.784;9.190;2023-02-01T18:14:49;7.90;99.90
10964;DHT22;5534;48.784;9.190;2023-02-01T18:17:15;7.90;99.90
10964;DHT22;5534;48.784;9.190;2023-02-01T18:19:41;7.80;99.90
10964;DHT22;5534;48.784;9.190;2023-02-01T18:22:16;8.00;99.90
10964;DHT22;5534;48.784;9.190;2023-02-01T18:24:43;8.20;99.90
10964;DHT22;5534;48.784;9.190;2023-02-01T18:27:09;8.00;99.90
10964;DHT22;5534;48.784;9.190;2023-02-01T18:29:35;8.20;99.90
10964;DHT22;5534;48.784;9.190;2023-02-01T18:32:01;7.90;99.90
10964;DHT22;5534;48.784;9.190;2023-02-01T18:34:27;7.70;99.90
10964;DHT22;5534;48.784;9.190;2023-02-01T18:36:54;7.80;99.90
10964;DHT22;5534;48.784;9.190;2023-02-01T18:39:40;7.80;99.90
10964;DHT22;5534;48.784;9.190;2023-02-01T18:42:10;7.90;99.90
10964;DHT22;5534;48.784;9.190;2023-02-01T18:44:36;7.80;99.90